sensor_id;sensor_type;location;lat;lon;timestamp;temperature;humidity
31733;DHT22;18312;51.486;7.144;2022-08-19T00:01:39;17.60;99.90
31733;DHT22;18312;51.486;7.144;2022-08-19T00:04:08;17.50;99.90
31733;DHT22;18312;51.486;7.144;2022-08-19T00:06:36;17.50;99.90
31733;DHT22;18312;51.486;7.144;2022-08-19T00:09:06;17.40;99.90
31733;DHT22;18312;51.486;7.144;2022-08-19T00:11:33;17.40;99.90
31733;DHT22;18312;51.486;7.144;2022-08-19T00:14:00;17.30;99.90
31733;DHT22;18312;51.486;7.144;2022-08-19T00:16:28;17.30;99.90
31733;DHT22;18312;51.486;7.144;2022-08-19T00:18:55;17.40;99.90
31733;DHT22;18312;51.486;7.144;2022-08-19T00:21:22;17.50;99.90
31733;DHT22;18312;51.486;7.144;2022-08-19T00:23:49;17.50;99.90
31733;DHT22;18312;51.486;7.144;2022-08-19T00:26:16;17.30;99.90
31733;DHT22;18312;51.486;7.144;2022-08-19T00:28:43;17.30;99.90
31733;DHT22;18312;51.486;7.144;2022-08-19T00:31:10;17.20;99.90
31733;DHT22;18312;51.486;7.144;2022-08-19T00:33:38;17.20;99.90
31733;DHT22;18312;51.486;7.144;2022-08-19T00:36:07;17.20;99.90
31733;DHT22;18312;51.486;7.144;2022-08-19T00:38:36;17.20;99.90
31733;DHT22;18312;51.486;7.144;2022-08-19T00:41:04;17.20;99.90
31733;DHT22;18312;51.486;7.144;2022-08-19T00:43:31;17.20;99.90
31733;DHT22;18312;51.486;7.144;2022-08-19T00:45:58;17.20;99.90
31733;DHT22;18312;51.486;7.144;2022-08-19T00:48:26;17.20;99.90
31733;DHT22;18312;51.486;7.144;2022-08-19T00:50:55;17.20;99.90
31733;DHT22;18312;51.486;7.144;2022-08-19T00:53:25;17.20;99.90
31733;DHT22;18312;51.486;7.144;2022-08-19T00:55:55;17.20;99.90
31733;DHT22;18312;51.486;7.144;2022-08-19T00:58:27;17.20;99.90
31733;DHT22;18312;51.486;7.144;2022-08-19T01:00:55;17.20;99.90
31733;DHT22;18312;51.486;7.144;2022-08-19T01:03:22;17.10;99.90
31733;DHT22;18312;51.486;7.144;2022-08-19T01:05:50;17.00;99.90
31733;DHT22;18312;51.486;7.144;2022-08-19T01:08:19;17.00;99.90
31733;DHT22;18312;51.486;7.144;2022-08-19T01:10:49;16.90;99.90
31733;DHT22;18312;51.486;7.144;2022-08-19T01:13:17;16.90;99.90
31733;DHT22;18312;51.486;7.144;2022-08-19T01:15:47;16.90;99.90
31733;DHT22;18312;51.486;7.144;2022-08-19T01:18:16;16.80;99.90
31733;DHT22;18312;51.486;7.144;2022-08-19T01:20:44;16.90;99.90
31733;DHT22;18312;51.486;7.144;2022-08-19T01:23:14;16.90;99.90
31733;DHT22;18312;51.486;7.144;2022-08-19T01:25:42;16.80;99.90
31733;DHT22;18312;51.486;7.144;2022-08-19T01:28:16;16.70;99.90
31733;DHT22;18312;51.486;7.144;2022-08-19T01:30:44;16.70;99.90
31733;DHT22;18312;51.486;7.144;2022-08-19T01:33:11;16.70;99.90
31733;DHT22;18312;51.486;7.144;2022-08-19T01:35:39;16.80;99.90
31733;DHT22;18312;51.486;7.144;2022-08-19T01:38:08;16.80;99.90
31733;DHT22;18312;51.486;7.144;2022-08-19T01:40:39;16.70;99.90
31733;DHT22;18312;51.486;7.144;2022-08-19T01:43:07;16.70;99.90
31733;DHT22;18312;51.486;7.144;2022-08-19T01:45:36;16.60;99.90
31733;DHT22;18312;51.486;7.144;2022-08-19T01:48:06;16.50;99.90
31733;DHT22;18312;51.486;7.144;2022-08-19T01:50:34;16.50;99.90
31733;DHT22;18312;51.486;7.144;2022-08-19T01:53:06;16.50;99.90
31733;DHT22;18312;51.486;7.144;2022-08-19T01:55:34;16.50;99.90
31733;DHT22;18312;51.486;7.144;2022-08-19T01:58:04;16.60;99.90
31733;DHT22;18312;51.486;7.144;2022-08-19T02:00:32;16.60;99.90
31733;DHT22;18312;51.486;7.144;2022-08-19T02:02:59;16.60;99.90
31733;DHT22;18312;51.486;7.144;2022-08-19T02:05:26;16.60;99.90
31733;DHT22;18312;51.486;7.144;2022-08-19T02:07:55;16.50;99.90
31733;DHT22;18312;51.486;7.144;2022-08-19T02:10:22;16.50;99.90
31733;DHT22;18312;51.486;7.144;2022-08-19T02:12:50;16.40;99.90
31733;DHT22;18312;51.486;7.144;2022-08-19T02:15:19;16.40;99.90
31733;DHT22;18312;51.486;7.144;2022-08-19T02:17:48;16.30;99.90
31733;DHT22;18312;51.486;7.144;2022-08-19T02:20:15;16.30;99.90
31733;DHT22;18312;51.486;7.144;2022-08-19T02:22:43;16.30;99.90
31733;DHT22;18312;51.486;7.144;2022-08-19T02:25:10;16.40;99.90
31733;DHT22;18312;51.486;7.144;2022-08-19T02:27:37;16.30;99.90
31733;DHT22;18312;51.486;7.144;2022-08-19T02:30:06;16.30;99.90
31733;DHT22;18312;51.486;7.144;2022-08-19T02:32:34;16.20;99.90
31733;DHT22;18312;51.486;7.144;2022-08-19T02:35:01;16.20;99.90
31733;DHT22;18312;51.486;7.144;2022-08-19T02:37:28;16.20;99.90
31733;DHT22;18312;51.486;7.144;2022-08-19T02:40:14;16.20;99.90
31733;DHT22;18312;51.486;7.144;2022-08-19T02:42:43;16.20;99.90
31733;DHT22;18312;51.486;7.144;2022-08-19T02:45:11;16.20;99.90
31733;DHT22;18312;51.486;7.144;2022-08-19T02:47:39;16.20;99.90
31733;DHT22;18312;51.486;7.144;2022-08-19T02:50:07;16.10;99.90
31733;DHT22;18312;51.486;7.144;2022-08-19T02:52:34;16.10;99.90
31733;DHT22;18312;51.486;7.144;2022-08-19T02:55:01;16.00;99.90
31733;DHT22;18312;51.486;7.144;2022-08-19T02:57:30;16.00;99.90
31733;DHT22;18312;51.486;7.144;2022-08-19T02:59:58;16.10;99.90
31733;DHT22;18312;51.486;7.144;2022-08-19T03:02:25;16.10;99.90
31733;DHT22;18312;51.486;7.144;2022-08-19T03:04:54;16.10;99.90
31733;DHT22;18312;51.486;7.144;2022-08-19T03:07:20;16.10;99.90
31733;DHT22;18312;51.486;7.144;2022-08-19T03:09:47;16.00;99.90
31733;DHT22;18312;51.486;7.144;2022-08-19T03:12:14;16.00;99.90
31733;DHT22;18312;51.486;7.144;2022-08-19T03:14:41;16.10;99.90
31733;DHT22;18312;51.486;7.144;2022-08-19T03:17:08;16.10;99.90
31733;DHT22;18312;51.486;7.144;2022-08-19T03:19:35;16.10;99.90
31733;DHT22;18312;51.486;7.144;2022-08-19T03:22:05;16.00;99.90
31733;DHT22;18312;51.486;7.144;2022-08-19T03:24:31;16.10;99.90
31733;DHT22;18312;51.486;7.144;2022-08-19T03:26:58;16.10;99.90
31733;DHT22;18312;51.486;7.144;2022-08-19T03:29:27;16.00;99.90
31733;DHT22;18312;51.486;7.144;2022-08-19T03:31:53;16.10;99.90
31733;DHT22;18312;51.486;7.144;2022-08-19T03:34:24;15.90;99.90
31733;DHT22;18312;51.486;7.144;2022-08-19T03:36:52;15.90;99.90
31733;DHT22;18312;51.486;7.144;2022-08-19T03:39:22;16.00;99.90
31733;DHT22;18312;51.486;7.144;2022-08-19T03:41:50;15.90;99.90
31733;DHT22;18312;51.486;7.144;2022-08-19T03:44:19;15.90;99.90
31733;DHT22;18312;51.486;7.144;2022-08-19T03:46:49;16.00;99.90
31733;DHT22;18312;51.486;7.144;2022-08-19T03:49:16;16.00;99.90
31733;DHT22;18312;51.486;7.144;2022-08-19T03:51:43;15.90;99.90
31733;DHT22;18312;51.486;7.144;2022-08-19T03:54:12;15.90;99.90
31733;DHT22;18312;51.486;7.144;2022-08-19T03:56:42;16.00;99.90
31733;DHT22;18312;51.486;7.144;2022-08-19T03:59:12;15.90;99.90
31733;DHT22;18312;51.486;7.144;2022-08-19T04:01:40;15.90;99.90
31733;DHT22;18312;51.486;7.144;2022-08-19T04:04:07;15.90;99.90
31733;DHT22;18312;51.486;7.144;2022-08-19T04:06:36;15.90;99.90
31733;DHT22;18312;51.486;7.144;2022-08-19T04:09:08;15.90;99.90
31733;DHT22;18312;51.486;7.144;2022-08-19T04:11:37;15.80;99.90
31733;DHT22;18312;51.486;7.144;2022-08-19T04:14:09;15.80;99.90
31733;DHT22;18312;51.486;7.144;2022-08-19T04:16:36;15.80;99.90
31733;DHT22;18312;51.486;7.144;2022-08-19T04:19:05;15.80;99.90
31733;DHT22;18312;51.486;7.144;2022-08-19T04:21:32;15.90;99.90
31733;DHT22;18312;51.486;7.144;2022-08-19T04:23:59;16.00;99.90
31733;DHT22;18312;51.486;7.144;2022-08-19T04:26:28;16.00;99.90
31733;DHT22;18312;51.486;7.144;2022-08-19T04:28:57;16.10;99.90
31733;DHT22;18312;51.486;7.144;2022-08-19T04:31:27;15.90;99.90
31733;DHT22;18312;51.486;7.144;2022-08-19T04:33:55;15.90;99.90
31733;DHT22;18312;51.486;7.144;2022-08-19T04:36:25;15.90;99.90
31733;DHT22;18312;51.486;7.144;2022-08-19T04:38:54;15.90;99.90
31733;DHT22;18312;51.486;7.144;2022-08-19T04:41:22;15.90;99.90
31733;DHT22;18312;51.486;7.144;2022-08-19T04:44:07;16.10;99.90
31733;DHT22;18312;51.486;7.144;2022-08-19T04:46:35;16.20;99.90
31733;DHT22;18312;51.486;7.144;2022-08-19T04:49:04;16.30;99.90
31733;DHT22;18312;51.486;7.144;2022-08-19T04:51:32;16.40;99.90
31733;DHT22;18312;51.486;7.144;2022-08-19T04:54:00;16.40;99.90
31733;DHT22;18312;51.486;7.144;2022-08-19T04:56:27;16.50;99.90
31733;DHT22;18312;51.486;7.144;2022-08-19T04:58:55;16.50;99.90
31733;DHT22;18312;51.486;7.144;2022-08-19T05:01:24;16.60;99.90
31733;DHT22;18312;51.486;7.144;2022-08-19T05:03:53;16.60;99.90
31733;DHT22;18312;51.486;7.144;2022-08-19T05:06:21;16.70;99.90
31733;DHT22;18312;51.486;7.144;2022-08-19T05:08:49;16.80;99.90
31733;DHT22;18312;51.486;7.144;2022-08-19T05:11:19;16.90;99.90
31733;DHT22;18312;51.486;7.144;2022-08-19T05:13:51;17.00;99.90
31733;DHT22;18312;51.486;7.144;2022-08-19T05:16:20;17.10;99.90
31733;DHT22;18312;51.486;7.144;2022-08-19T05:18:48;17.20;99.90
31733;DHT22;18312;51.486;7.144;2022-08-19T05:21:35;17.20;99.90
31733;DHT22;18312;51.486;7.144;2022-08-19T05:24:21;17.30;99.90
31733;DHT22;18312;51.486;7.144;2022-08-19T05:26:50;17.40;99.90
31733;DHT22;18312;51.486;7.144;2022-08-19T05:29:19;17.50;99.90
31733;DHT22;18312;51.486;7.144;2022-08-19T05:31:47;17.60;99.90
31733;DHT22;18312;51.486;7.144;2022-08-19T05:34:15;17.70;99.90
31733;DHT22;18312;51.486;7.144;2022-08-19T05:36:46;17.80;99.90
31733;DHT22;18312;51.486;7.144;2022-08-19T05:39:15;17.90;99.90
31733;DHT22;18312;51.486;7.144;2022-08-19T05:41:43;18.10;99.90
31733;DHT22;18312;51.486;7.144;2022-08-19T05:44:11;18.30;99.90
31733;DHT22;18312;51.486;7.144;2022-08-19T05:46:39;18.50;99.90
31733;DHT22;18312;51.486;7.144;2022-08-19T05:49:07;18.80;99.90
31733;DHT22;18312;51.486;7.144;2022-08-19T05:51:35;18.90;99.90
31733;DHT22;18312;51.486;7.144;2022-08-19T05:54:05;19.00;99.90
31733;DHT22;18312;51.486;7.144;2022-08-19T05:56:33;19.30;99.90
31733;DHT22;18312;51.486;7.144;2022-08-19T05:59:02;19.40;99.90
31733;DHT22;18312;51.486;7.144;2022-08-19T06:01:29;19.70;99.90
31733;DHT22;18312;51.486;7.144;2022-08-19T06:03:56;20.20;99.90
31733;DHT22;18312;51.486;7.144;2022-08-19T06:06:22;20.20;99.90
31733;DHT22;18312;51.486;7.144;2022-08-19T06:08:49;20.20;99.90
31733;DHT22;18312;51.486;7.144;2022-08-19T06:11:22;20.00;99.90
31733;DHT22;18312;51.486;7.144;2022-08-19T06:13:50;20.00;99.90
31733;DHT22;18312;51.486;7.144;2022-08-19T06:16:18;20.10;99.90
31733;DHT22;18312;51.486;7.144;2022-08-19T06:18:49;20.20;99.90
31733;DHT22;18312;51.486;7.144;2022-08-19T06:21:19;20.20;99.90
31733;DHT22;18312;51.486;7.144;2022-08-19T06:23:46;20.40;99.90
31733;DHT22;18312;51.486;7.144;2022-08-19T06:26:13;20.60;99.90
31733;DHT22;18312;51.486;7.144;2022-08-19T06:28:42;20.90;99.90
31733;DHT22;18312;51.486;7.144;2022-08-19T06:31:12;21.10;99.90
31733;DHT22;18312;51.486;7.144;2022-08-19T06:33:39;21.00;99.90
31733;DHT22;18312;51.486;7.144;2022-08-19T06:36:06;21.00;99.90
31733;DHT22;18312;51.486;7.144;2022-08-19T06:38:34;21.10;99.90
31733;DHT22;18312;51.486;7.144;2022-08-19T06:41:02;21.00;99.90
31733;DHT22;18312;51.486;7.144;2022-08-19T06:43:29;21.00;99.90
31733;DHT22;18312;51.486;7.144;2022-08-19T06:45:57;20.90;99.90
31733;DHT22;18312;51.486;7.144;2022-08-19T06:48:24;20.80;99.90
31733;DHT22;18312;51.486;7.144;2022-08-19T06:50:51;20.80;99.90
31733;DHT22;18312;51.486;7.144;2022-08-19T06:53:18;20.80;99.90
31733;DHT22;18312;51.486;7.144;2022-08-19T06:55:45;20.70;99.90
31733;DHT22;18312;51.486;7.144;2022-08-19T06:58:12;21.00;99.90
31733;DHT22;18312;51.486;7.144;2022-08-19T07:00:40;21.00;99.90
31733;DHT22;18312;51.486;7.144;2022-08-19T07:03:08;21.00;99.90
31733;DHT22;18312;51.486;7.144;2022-08-19T07:05:39;20.90;99.90
31733;DHT22;18312;51.486;7.144;2022-08-19T07:08:05;20.80;99.90
31733;DHT22;18312;51.486;7.144;2022-08-19T07:10:33;20.80;99.90
31733;DHT22;18312;51.486;7.144;2022-08-19T07:13:00;20.80;99.90
31733;DHT22;18312;51.486;7.144;2022-08-19T07:15:27;20.70;99.90
31733;DHT22;18312;51.486;7.144;2022-08-19T07:17:53;20.70;99.90
31733;DHT22;18312;51.486;7.144;2022-08-19T07:20:21;20.70;99.90
31733;DHT22;18312;51.486;7.144;2022-08-19T07:22:49;20.80;99.90
31733;DHT22;18312;51.486;7.144;2022-08-19T07:25:16;21.00;99.90
31733;DHT22;18312;51.486;7.144;2022-08-19T07:27:43;21.20;99.90
31733;DHT22;18312;51.486;7.144;2022-08-19T07:30:12;21.30;99.90
31733;DHT22;18312;51.486;7.144;2022-08-19T07:32:39;21.30;99.90
31733;DHT22;18312;51.486;7.144;2022-08-19T07:35:07;21.50;99.90
31733;DHT22;18312;51.486;7.144;2022-08-19T07:37:36;21.60;99.90
31733;DHT22;18312;51.486;7.144;2022-08-19T07:40:05;21.70;99.90
31733;DHT22;18312;51.486;7.144;2022-08-19T07:42:33;21.70;99.90
31733;DHT22;18312;51.486;7.144;2022-08-19T07:44:59;21.90;99.90
31733;DHT22;18312;51.486;7.144;2022-08-19T07:47:26;22.00;99.90
31733;DHT22;18312;51.486;7.144;2022-08-19T07:49:54;22.30;99.90
31733;DHT22;18312;51.486;7.144;2022-08-19T07:52:20;22.40;99.90
31733;DHT22;18312;51.486;7.144;2022-08-19T07:54:48;22.20;99.90
31733;DHT22;18312;51.486;7.144;2022-08-19T07:57:17;22.30;99.90
31733;DHT22;18312;51.486;7.144;2022-08-19T07:59:44;22.40;99.90
31733;DHT22;18312;51.486;7.144;2022-08-19T08:02:11;22.40;99.90
31733;DHT22;18312;51.486;7.144;2022-08-19T08:04:38;22.40;99.90
31733;DHT22;18312;51.486;7.144;2022-08-19T08:07:22;22.50;99.90
31733;DHT22;18312;51.486;7.144;2022-08-19T08:10:07;22.40;99.90
31733;DHT22;18312;51.486;7.144;2022-08-19T08:12:37;22.40;99.90
31733;DHT22;18312;51.486;7.144;2022-08-19T08:15:09;22.50;99.90
31733;DHT22;18312;51.486;7.144;2022-08-19T08:17:36;22.50;99.90
31733;DHT22;18312;51.486;7.144;2022-08-19T08:20:05;22.50;99.90
31733;DHT22;18312;51.486;7.144;2022-08-19T08:22:33;22.40;99.90
31733;DHT22;18312;51.486;7.144;2022-08-19T08:25:20;22.60;99.90
31733;DHT22;18312;51.486;7.144;2022-08-19T08:27:48;22.80;99.90
31733;DHT22;18312;51.486;7.144;2022-08-19T08:30:18;22.90;99.90
31733;DHT22;18312;51.486;7.144;2022-08-19T08:32:45;22.90;99.90
31733;DHT22;18312;51.486;7.144;2022-08-19T08:35:13;22.90;99.90
31733;DHT22;18312;51.486;7.144;2022-08-19T08:37:42;23.00;99.90
31733;DHT22;18312;51.486;7.144;2022-08-19T08:40:18;22.90;99.90
31733;DHT22;18312;51.486;7.144;2022-08-19T08:42:51;23.00;99.90
31733;DHT22;18312;51.486;7.144;2022-08-19T08:45:22;23.20;99.90
31733;DHT22;18312;51.486;7.144;2022-08-19T08:47:52;23.30;99.90
31733;DHT22;18312;51.486;7.144;2022-08-19T08:50:24;23.20;99.90
31733;DHT22;18312;51.486;7.144;2022-08-19T08:52:54;23.40;99.90
31733;DHT22;18312;51.486;7.144;2022-08-19T08:55:27;23.40;99.90
31733;DHT22;18312;51.486;7.144;2022-08-19T08:58:00;23.50;99.90
31733;DHT22;18312;51.486;7.144;2022-08-19T09:00:31;23.60;99.90
31733;DHT22;18312;51.486;7.144;2022-08-19T09:02:59;24.10;99.90
31733;DHT22;18312;51.486;7.144;2022-08-19T09:05:35;24.30;99.90
31733;DHT22;18312;51.486;7.144;2022-08-19T09:08:13;24.70;99.90
31733;DHT22;18312;51.486;7.144;2022-08-19T09:10:48;24.50;99.90
31733;DHT22;18312;51.486;7.144;2022-08-19T09:13:21;24.50;99.90
31733;DHT22;18312;51.486;7.144;2022-08-19T09:15:52;24.30;99.90
31733;DHT22;18312;51.486;7.144;2022-08-19T09:18:20;24.70;99.90
31733;DHT22;18312;51.486;7.144;2022-08-19T09:20:47;24.70;99.90
31733;DHT22;18312;51.486;7.144;2022-08-19T09:23:14;25.50;99.90
31733;DHT22;18312;51.486;7.144;2022-08-19T09:25:41;25.70;99.90
31733;DHT22;18312;51.486;7.144;2022-08-19T09:28:09;25.70;99.90
31733;DHT22;18312;51.486;7.144;2022-08-19T09:30:40;26.80;99.90
31733;DHT22;18312;51.486;7.144;2022-08-19T09:33:07;26.30;99.90
31733;DHT22;18312;51.486;7.144;2022-08-19T09:35:34;26.50;99.90
31733;DHT22;18312;51.486;7.144;2022-08-19T09:38:02;26.00;99.90
31733;DHT22;18312;51.486;7.144;2022-08-19T09:40:29;25.50;99.90
31733;DHT22;18312;51.486;7.144;2022-08-19T09:42:57;25.40;99.90
31733;DHT22;18312;51.486;7.144;2022-08-19T09:45:29;25.20;99.90
31733;DHT22;18312;51.486;7.144;2022-08-19T09:47:56;24.90;99.90
31733;DHT22;18312;51.486;7.144;2022-08-19T09:50:24;25.10;99.90
31733;DHT22;18312;51.486;7.144;2022-08-19T09:52:50;25.40;99.90
31733;DHT22;18312;51.486;7.144;2022-08-19T09:55:18;25.50;99.90
31733;DHT22;18312;51.486;7.144;2022-08-19T09:57:45;25.60;99.90
31733;DHT22;18312;51.486;7.144;2022-08-19T10:00:12;25.80;99.90
31733;DHT22;18312;51.486;7.144;2022-08-19T10:02:41;25.60;99.90
31733;DHT22;18312;51.486;7.144;2022-08-19T10:05:08;25.30;99.90
31733;DHT22;18312;51.486;7.144;2022-08-19T10:07:52;25.90;99.90
31733;DHT22;18312;51.486;7.144;2022-08-19T10:10:21;25.60;99.90
31733;DHT22;18312;51.486;7.144;2022-08-19T10:12:48;25.60;99.90
31733;DHT22;18312;51.486;7.144;2022-08-19T10:15:15;25.50;99.90
31733;DHT22;18312;51.486;7.144;2022-08-19T10:17:47;25.40;99.90
31733;DHT22;18312;51.486;7.144;2022-08-19T10:20:14;25.00;99.90
31733;DHT22;18312;51.486;7.144;2022-08-19T10:22:41;24.90;99.90
31733;DHT22;18312;51.486;7.144;2022-08-19T10:25:08;25.10;99.90
31733;DHT22;18312;51.486;7.144;2022-08-19T10:27:35;25.10;99.90
31733;DHT22;18312;51.486;7.144;2022-08-19T10:30:03;25.30;99.90
31733;DHT22;18312;51.486;7.144;2022-08-19T10:32:30;25.80;99.40
31733;DHT22;18312;51.486;7.144;2022-08-19T10:34:59;26.40;98.40
31733;DHT22;18312;51.486;7.144;2022-08-19T10:37:26;26.80;97.40
31733;DHT22;18312;51.486;7.144;2022-08-19T10:39:53;26.40;95.80
31733;DHT22;18312;51.486;7.144;2022-08-19T10:42:20;26.20;97.00
31733;DHT22;18312;51.486;7.144;2022-08-19T10:44:47;25.60;98.10
31733;DHT22;18312;51.486;7.144;2022-08-19T10:47:14;25.60;97.90
31733;DHT22;18312;51.486;7.144;2022-08-19T10:49:41;25.50;98.10
31733;DHT22;18312;51.486;7.144;2022-08-19T10:52:27;25.30;98.50
31733;DHT22;18312;51.486;7.144;2022-08-19T10:54:59;25.30;98.60
31733;DHT22;18312;51.486;7.144;2022-08-19T10:57:44;25.20;99.30
31733;DHT22;18312;51.486;7.144;2022-08-19T11:00:12;25.30;99.90
31733;DHT22;18312;51.486;7.144;2022-08-19T11:02:39;25.30;99.90
31733;DHT22;18312;51.486;7.144;2022-08-19T11:05:07;24.90;99.90
31733;DHT22;18312;51.486;7.144;2022-08-19T11:07:36;25.20;99.90
31733;DHT22;18312;51.486;7.144;2022-08-19T11:10:04;25.20;99.90
31733;DHT22;18312;51.486;7.144;2022-08-19T11:12:31;25.00;99.90
31733;DHT22;18312;51.486;7.144;2022-08-19T11:14:58;25.20;99.90
31733;DHT22;18312;51.486;7.144;2022-08-19T11:17:25;25.40;99.90
31733;DHT22;18312;51.486;7.144;2022-08-19T11:19:52;25.80;99.90
31733;DHT22;18312;51.486;7.144;2022-08-19T11:22:18;25.80;98.10
31733;DHT22;18312;51.486;7.144;2022-08-19T11:24:47;26.00;99.30
31733;DHT22;18312;51.486;7.144;2022-08-19T11:27:13;26.00;98.70
31733;DHT22;18312;51.486;7.144;2022-08-19T11:29:40;26.10;97.70
31733;DHT22;18312;51.486;7.144;2022-08-19T11:32:09;26.00;95.60
31733;DHT22;18312;51.486;7.144;2022-08-19T11:34:36;26.50;95.60
31733;DHT22;18312;51.486;7.144;2022-08-19T11:37:04;26.60;95.50
31733;DHT22;18312;51.486;7.144;2022-08-19T11:39:32;26.70;95.40
31733;DHT22;18312;51.486;7.144;2022-08-19T11:42:03;26.60;93.60
31733;DHT22;18312;51.486;7.144;2022-08-19T11:44:50;26.60;92.90
31733;DHT22;18312;51.486;7.144;2022-08-19T11:47:16;26.40;93.10
31733;DHT22;18312;51.486;7.144;2022-08-19T11:49:43;26.90;92.70
31733;DHT22;18312;51.486;7.144;2022-08-19T11:52:10;27.50;92.90
31733;DHT22;18312;51.486;7.144;2022-08-19T11:54:37;27.50;89.80
31733;DHT22;18312;51.486;7.144;2022-08-19T11:57:05;27.70;89.20
31733;DHT22;18312;51.486;7.144;2022-08-19T11:59:32;27.70;89.10
31733;DHT22;18312;51.486;7.144;2022-08-19T12:01:58;27.20;89.10
31733;DHT22;18312;51.486;7.144;2022-08-19T12:04:25;27.50;88.20
31733;DHT22;18312;51.486;7.144;2022-08-19T12:06:52;28.00;88.00
31733;DHT22;18312;51.486;7.144;2022-08-19T12:09:19;28.20;86.50
31733;DHT22;18312;51.486;7.144;2022-08-19T12:11:47;28.40;82.60
31733;DHT22;18312;51.486;7.144;2022-08-19T12:14:15;28.30;81.70
31733;DHT22;18312;51.486;7.144;2022-08-19T12:16:44;28.50;82.10
31733;DHT22;18312;51.486;7.144;2022-08-19T12:19:11;29.00;79.40
31733;DHT22;18312;51.486;7.144;2022-08-19T12:21:38;29.10;77.80
31733;DHT22;18312;51.486;7.144;2022-08-19T12:24:06;29.20;75.50
31733;DHT22;18312;51.486;7.144;2022-08-19T12:26:34;28.90;76.90
31733;DHT22;18312;51.486;7.144;2022-08-19T12:29:00;28.90;74.70
31733;DHT22;18312;51.486;7.144;2022-08-19T12:31:29;29.00;73.30
31733;DHT22;18312;51.486;7.144;2022-08-19T12:33:56;29.40;72.60
31733;DHT22;18312;51.486;7.144;2022-08-19T12:36:24;29.60;71.40
31733;DHT22;18312;51.486;7.144;2022-08-19T12:38:51;29.70;70.10
31733;DHT22;18312;51.486;7.144;2022-08-19T12:41:18;29.60;71.50
31733;DHT22;18312;51.486;7.144;2022-08-19T12:43:47;28.60;72.90
31733;DHT22;18312;51.486;7.144;2022-08-19T12:46:15;29.20;74.10
31733;DHT22;18312;51.486;7.144;2022-08-19T12:48:43;30.00;71.90
31733;DHT22;18312;51.486;7.144;2022-08-19T12:51:12;30.40;68.90
31733;DHT22;18312;51.486;7.144;2022-08-19T12:53:40;30.20;67.00
31733;DHT22;18312;51.486;7.144;2022-08-19T12:56:07;29.80;68.40
31733;DHT22;18312;51.486;7.144;2022-08-19T12:58:34;29.80;68.10
31733;DHT22;18312;51.486;7.144;2022-08-19T13:01:06;30.10;67.90
31733;DHT22;18312;51.486;7.144;2022-08-19T13:03:33;30.40;67.50
31733;DHT22;18312;51.486;7.144;2022-08-19T13:06:01;29.40;67.90
31733;DHT22;18312;51.486;7.144;2022-08-19T13:08:28;29.80;68.00
31733;DHT22;18312;51.486;7.144;2022-08-19T13:10:55;29.90;66.80
31733;DHT22;18312;51.486;7.144;2022-08-19T13:13:23;29.90;69.00
31733;DHT22;18312;51.486;7.144;2022-08-19T13:15:51;29.70;69.00
31733;DHT22;18312;51.486;7.144;2022-08-19T13:18:18;29.40;68.10
31733;DHT22;18312;51.486;7.144;2022-08-19T13:20:45;29.20;69.30
31733;DHT22;18312;51.486;7.144;2022-08-19T13:23:13;28.60;69.30
31733;DHT22;18312;51.486;7.144;2022-08-19T13:25:40;28.40;69.20
31733;DHT22;18312;51.486;7.144;2022-08-19T13:28:07;28.30;69.20
31733;DHT22;18312;51.486;7.144;2022-08-19T13:30:33;27.90;68.80
31733;DHT22;18312;51.486;7.144;2022-08-19T13:33:29;27.80;69.00
31733;DHT22;18312;51.486;7.144;2022-08-19T13:35:59;28.60;68.60
31733;DHT22;18312;51.486;7.144;2022-08-19T13:38:28;28.70;67.50
31733;DHT22;18312;51.486;7.144;2022-08-19T13:40:55;28.80;67.80
31733;DHT22;18312;51.486;7.144;2022-08-19T13:43:25;29.50;66.20
31733;DHT22;18312;51.486;7.144;2022-08-19T13:45:54;29.20;66.80
31733;DHT22;18312;51.486;7.144;2022-08-19T13:48:22;28.70;67.30
31733;DHT22;18312;51.486;7.144;2022-08-19T13:50:49;28.70;67.80
31733;DHT22;18312;51.486;7.144;2022-08-19T13:53:16;28.80;66.90
31733;DHT22;18312;51.486;7.144;2022-08-19T13:55:45;29.30;68.00
31733;DHT22;18312;51.486;7.144;2022-08-19T13:58:12;29.10;66.40
31733;DHT22;18312;51.486;7.144;2022-08-19T14:00:41;29.30;66.30
31733;DHT22;18312;51.486;7.144;2022-08-19T14:03:09;29.00;65.90
31733;DHT22;18312;51.486;7.144;2022-08-19T14:05:37;28.40;66.70
31733;DHT22;18312;51.486;7.144;2022-08-19T14:08:04;28.80;67.00
31733;DHT22;18312;51.486;7.144;2022-08-19T14:10:31;29.40;65.50
31733;DHT22;18312;51.486;7.144;2022-08-19T14:13:02;29.40;65.30
31733;DHT22;18312;51.486;7.144;2022-08-19T14:15:29;29.70;65.90
31733;DHT22;18312;51.486;7.144;2022-08-19T14:17:56;30.10;65.20
31733;DHT22;18312;51.486;7.144;2022-08-19T14:20:23;29.70;64.20
31733;DHT22;18312;51.486;7.144;2022-08-19T14:22:50;29.70;64.70
31733;DHT22;18312;51.486;7.144;2022-08-19T14:25:23;29.70;64.90
31733;DHT22;18312;51.486;7.144;2022-08-19T14:27:50;29.50;64.30
31733;DHT22;18312;51.486;7.144;2022-08-19T14:30:21;29.60;64.10
31733;DHT22;18312;51.486;7.144;2022-08-19T14:32:48;29.90;63.90
31733;DHT22;18312;51.486;7.144;2022-08-19T14:35:15;30.00;61.60
31733;DHT22;18312;51.486;7.144;2022-08-19T14:37:43;29.40;61.60
31733;DHT22;18312;51.486;7.144;2022-08-19T14:40:12;29.70;62.20
31733;DHT22;18312;51.486;7.144;2022-08-19T14:42:40;29.80;62.30
31733;DHT22;18312;51.486;7.144;2022-08-19T14:45:08;30.00;63.40
31733;DHT22;18312;51.486;7.144;2022-08-19T14:47:36;29.80;63.20
31733;DHT22;18312;51.486;7.144;2022-08-19T14:50:05;29.70;62.50
31733;DHT22;18312;51.486;7.144;2022-08-19T14:52:32;29.90;61.20
31733;DHT22;18312;51.486;7.144;2022-08-19T14:54:59;29.90;62.50
31733;DHT22;18312;51.486;7.144;2022-08-19T14:57:26;29.40;61.90
31733;DHT22;18312;51.486;7.144;2022-08-19T14:59:53;29.30;62.70
31733;DHT22;18312;51.486;7.144;2022-08-19T15:02:20;29.20;64.10
31733;DHT22;18312;51.486;7.144;2022-08-19T15:04:48;29.30;62.90
31733;DHT22;18312;51.486;7.144;2022-08-19T15:07:15;29.10;61.30
31733;DHT22;18312;51.486;7.144;2022-08-19T15:09:42;29.60;62.70
31733;DHT22;18312;51.486;7.144;2022-08-19T15:12:09;29.80;62.10
31733;DHT22;18312;51.486;7.144;2022-08-19T15:14:37;30.10;62.10
31733;DHT22;18312;51.486;7.144;2022-08-19T15:17:05;30.10;61.50
31733;DHT22;18312;51.486;7.144;2022-08-19T15:19:32;30.10;61.30
31733;DHT22;18312;51.486;7.144;2022-08-19T15:22:02;29.80;61.30
31733;DHT22;18312;51.486;7.144;2022-08-19T15:24:29;29.20;61.50
31733;DHT22;18312;51.486;7.144;2022-08-19T15:26:56;29.00;62.20
31733;DHT22;18312;51.486;7.144;2022-08-19T15:29:23;28.80;62.80
31733;DHT22;18312;51.486;7.144;2022-08-19T15:31:51;28.70;63.70
31733;DHT22;18312;51.486;7.144;2022-08-19T15:34:20;28.50;63.30
31733;DHT22;18312;51.486;7.144;2022-08-19T15:36:47;28.50;62.90
31733;DHT22;18312;51.486;7.144;2022-08-19T15:39:15;29.00;62.20